<?xml version="1.0" encoding="UTF-8" standalone="no" ?>
<gpx xmlns="http://www.topografix.com/GPX/1/1" xmlns:xsi="http://www.w3.org/2001/XMLSchema-instance" xsi:schemaLocation="http://www.topografix.com/GPX/1/1 http://www.topografix.com/GPX/1/1/gpx.xsd" version="1.1" creator="VisuGPX - https://www.visugpx.com">
  <metadata>
    <name>11107976-LA NOIERIE - COQ A L'ÂNE  15 km</name>
  </metadata>
  <trk>
    <name><![CDATA[11107976-LA NOIERIE - COQ A L'ÂNE  15 km]]></name>
    <trkseg>
      <trkpt lat="46.29906" lon="4.16261">
        <ele>374</ele>
        <time>2020-03-13T10:26:44Z</time>
      </trkpt>
      <trkpt lat="46.29907" lon="4.16275">
        <ele>375</ele>
        <time>2020-03-13T10:26:57Z</time>
      </trkpt>
      <trkpt lat="46.29915" lon="4.16305">
        <ele>376</ele>
        <time>2020-03-13T10:27:27Z</time>
      </trkpt>
      <trkpt lat="46.29914" lon="4.16335">
        <ele>376</ele>
        <time>2020-03-13T10:27:54Z</time>
      </trkpt>
      <trkpt lat="46.29909" lon="4.1635">
        <ele>376</ele>
        <time>2020-03-13T10:28:10Z</time>
      </trkpt>
      <trkpt lat="46.29901" lon="4.16359">
        <ele>376</ele>
        <time>2020-03-13T10:28:23Z</time>
      </trkpt>
      <trkpt lat="46.29876" lon="4.16362">
        <ele>374</ele>
        <time>2020-03-13T10:28:57Z</time>
      </trkpt>
      <trkpt lat="46.29843" lon="4.16361">
        <ele>372</ele>
        <time>2020-03-13T10:29:41Z</time>
      </trkpt>
      <trkpt lat="46.29836" lon="4.16365">
        <ele>372</ele>
        <time>2020-03-13T10:29:51Z</time>
      </trkpt>
      <trkpt lat="46.2983" lon="4.16356">
        <ele>370</ele>
        <time>2020-03-13T10:30:02Z</time>
      </trkpt>
      <trkpt lat="46.298" lon="4.16345">
        <ele>365</ele>
        <time>2020-03-13T10:30:44Z</time>
      </trkpt>
      <trkpt lat="46.29786" lon="4.16344">
        <ele>363</ele>
        <time>2020-03-13T10:31:02Z</time>
      </trkpt>
      <trkpt lat="46.29775" lon="4.16349">
        <ele>362</ele>
        <time>2020-03-13T10:31:18Z</time>
      </trkpt>
      <trkpt lat="46.29764" lon="4.16361">
        <ele>362</ele>
        <time>2020-03-13T10:31:36Z</time>
      </trkpt>
      <trkpt lat="46.29744" lon="4.16401">
        <ele>361</ele>
        <time>2020-03-13T10:32:22Z</time>
      </trkpt>
      <trkpt lat="46.29737" lon="4.16409">
        <ele>360</ele>
        <time>2020-03-13T10:32:33Z</time>
      </trkpt>
      <trkpt lat="46.2968" lon="4.16451">
        <ele>354</ele>
        <time>2020-03-13T10:33:59Z</time>
      </trkpt>
      <trkpt lat="46.29703" lon="4.16347">
        <ele>353</ele>
        <time>2020-03-13T10:35:40Z</time>
      </trkpt>
      <trkpt lat="46.2971" lon="4.16299">
        <ele>352</ele>
        <time>2020-03-13T10:36:25Z</time>
      </trkpt>
      <trkpt lat="46.2971" lon="4.16264">
        <ele>351</ele>
        <time>2020-03-13T10:36:57Z</time>
      </trkpt>
      <trkpt lat="46.29726" lon="4.16201">
        <ele>348</ele>
        <time>2020-03-13T10:37:59Z</time>
      </trkpt>
      <trkpt lat="46.29732" lon="4.16187">
        <ele>347</ele>
        <time>2020-03-13T10:38:14Z</time>
      </trkpt>
      <trkpt lat="46.29743" lon="4.16167">
        <ele>345</ele>
        <time>2020-03-13T10:38:38Z</time>
      </trkpt>
      <trkpt lat="46.29797" lon="4.16096">
        <ele>345</ele>
        <time>2020-03-13T10:40:15Z</time>
      </trkpt>
      <trkpt lat="46.29812" lon="4.16071">
        <ele>344</ele>
        <time>2020-03-13T10:40:46Z</time>
      </trkpt>
      <trkpt lat="46.29823" lon="4.1605">
        <ele>344</ele>
        <time>2020-03-13T10:41:10Z</time>
      </trkpt>
      <trkpt lat="46.29828" lon="4.1603">
        <ele>343</ele>
        <time>2020-03-13T10:41:29Z</time>
      </trkpt>
      <trkpt lat="46.29829" lon="4.15984">
        <ele>341</ele>
        <time>2020-03-13T10:42:12Z</time>
      </trkpt>
      <trkpt lat="46.29818" lon="4.15965">
        <ele>341</ele>
        <time>2020-03-13T10:42:35Z</time>
      </trkpt>
      <trkpt lat="46.29816" lon="4.15952">
        <ele>341</ele>
        <time>2020-03-13T10:42:47Z</time>
      </trkpt>
      <trkpt lat="46.29816" lon="4.15937">
        <ele>341</ele>
        <time>2020-03-13T10:43:01Z</time>
      </trkpt>
      <trkpt lat="46.29819" lon="4.1591">
        <ele>341</ele>
        <time>2020-03-13T10:43:26Z</time>
      </trkpt>
      <trkpt lat="46.298" lon="4.15968">
        <ele>341</ele>
        <time>2020-03-13T10:44:25Z</time>
      </trkpt>
      <trkpt lat="46.29798" lon="4.15973">
        <ele>341</ele>
        <time>2020-03-13T10:44:31Z</time>
      </trkpt>
      <trkpt lat="46.2979" lon="4.15974">
        <ele>340</ele>
        <time>2020-03-13T10:44:41Z</time>
      </trkpt>
      <trkpt lat="46.2978" lon="4.15969">
        <ele>341</ele>
        <time>2020-03-13T10:44:55Z</time>
      </trkpt>
      <trkpt lat="46.29775" lon="4.15963">
        <ele>341</ele>
        <time>2020-03-13T10:45:04Z</time>
      </trkpt>
      <trkpt lat="46.29759" lon="4.15941">
        <ele>343</ele>
        <time>2020-03-13T10:45:34Z</time>
      </trkpt>
      <trkpt lat="46.2974" lon="4.15925">
        <ele>344</ele>
        <time>2020-03-13T10:46:03Z</time>
      </trkpt>
      <trkpt lat="46.29735" lon="4.15918">
        <ele>344</ele>
        <time>2020-03-13T10:46:12Z</time>
      </trkpt>
      <trkpt lat="46.29731" lon="4.15905">
        <ele>346</ele>
        <time>2020-03-13T10:46:25Z</time>
      </trkpt>
      <trkpt lat="46.2973" lon="4.15897">
        <ele>348</ele>
        <time>2020-03-13T10:46:33Z</time>
      </trkpt>
      <trkpt lat="46.29735" lon="4.15885">
        <ele>350</ele>
        <time>2020-03-13T10:46:46Z</time>
      </trkpt>
      <trkpt lat="46.29744" lon="4.15872">
        <ele>352</ele>
        <time>2020-03-13T10:47:03Z</time>
      </trkpt>
      <trkpt lat="46.29759" lon="4.15857">
        <ele>353</ele>
        <time>2020-03-13T10:47:27Z</time>
      </trkpt>
      <trkpt lat="46.29769" lon="4.15838">
        <ele>354</ele>
        <time>2020-03-13T10:47:49Z</time>
      </trkpt>
      <trkpt lat="46.29768" lon="4.15834">
        <ele>355</ele>
        <time>2020-03-13T10:47:53Z</time>
      </trkpt>
      <trkpt lat="46.29723" lon="4.15815">
        <ele>361</ele>
        <time>2020-03-13T10:48:55Z</time>
      </trkpt>
      <trkpt lat="46.29695" lon="4.15788">
        <ele>365</ele>
        <time>2020-03-13T10:49:40Z</time>
      </trkpt>
      <trkpt lat="46.2967" lon="4.15726">
        <ele>374</ele>
        <time>2020-03-13T10:50:47Z</time>
      </trkpt>
      <trkpt lat="46.29665" lon="4.15697">
        <ele>376</ele>
        <time>2020-03-13T10:51:14Z</time>
      </trkpt>
      <trkpt lat="46.29638" lon="4.15658">
        <ele>380</ele>
        <time>2020-03-13T10:52:05Z</time>
      </trkpt>
      <trkpt lat="46.29623" lon="4.15618">
        <ele>383</ele>
        <time>2020-03-13T10:52:47Z</time>
      </trkpt>
      <trkpt lat="46.29577" lon="4.15558">
        <ele>387</ele>
        <time>2020-03-13T10:54:10Z</time>
      </trkpt>
      <trkpt lat="46.29547" lon="4.15516">
        <ele>388</ele>
        <time>2020-03-13T10:55:05Z</time>
      </trkpt>
      <trkpt lat="46.2953" lon="4.15483">
        <ele>389</ele>
        <time>2020-03-13T10:55:43Z</time>
      </trkpt>
      <trkpt lat="46.29514" lon="4.15445">
        <ele>389</ele>
        <time>2020-03-13T10:56:24Z</time>
      </trkpt>
      <trkpt lat="46.29486" lon="4.15368">
        <ele>389</ele>
        <time>2020-03-13T10:57:45Z</time>
      </trkpt>
      <trkpt lat="46.29477" lon="4.15347">
        <ele>388</ele>
        <time>2020-03-13T10:58:07Z</time>
      </trkpt>
      <trkpt lat="46.29396" lon="4.15215">
        <ele>383</ele>
        <time>2020-03-13T11:00:50Z</time>
      </trkpt>
      <trkpt lat="46.2939" lon="4.15218">
        <ele>383</ele>
        <time>2020-03-13T11:00:59Z</time>
      </trkpt>
      <trkpt lat="46.29387" lon="4.15192">
        <ele>382</ele>
        <time>2020-03-13T11:01:23Z</time>
      </trkpt>
      <trkpt lat="46.29381" lon="4.15169">
        <ele>381</ele>
        <time>2020-03-13T11:01:46Z</time>
      </trkpt>
      <trkpt lat="46.29372" lon="4.15149">
        <ele>379</ele>
        <time>2020-03-13T11:02:08Z</time>
      </trkpt>
      <trkpt lat="46.29346" lon="4.15108">
        <ele>377</ele>
        <time>2020-03-13T11:02:59Z</time>
      </trkpt>
      <trkpt lat="46.29324" lon="4.15067">
        <ele>374</ele>
        <time>2020-03-13T11:03:47Z</time>
      </trkpt>
      <trkpt lat="46.29293" lon="4.15004">
        <ele>373</ele>
        <time>2020-03-13T11:04:58Z</time>
      </trkpt>
      <trkpt lat="46.29283" lon="4.14978">
        <ele>373</ele>
        <time>2020-03-13T11:05:25Z</time>
      </trkpt>
      <trkpt lat="46.29279" lon="4.14964">
        <ele>374</ele>
        <time>2020-03-13T11:05:39Z</time>
      </trkpt>
      <trkpt lat="46.29277" lon="4.14926">
        <ele>374</ele>
        <time>2020-03-13T11:06:15Z</time>
      </trkpt>
      <trkpt lat="46.29284" lon="4.14854">
        <ele>373</ele>
        <time>2020-03-13T11:07:22Z</time>
      </trkpt>
      <trkpt lat="46.29284" lon="4.14836">
        <ele>373</ele>
        <time>2020-03-13T11:07:38Z</time>
      </trkpt>
      <trkpt lat="46.29289" lon="4.14826">
        <ele>372</ele>
        <time>2020-03-13T11:07:50Z</time>
      </trkpt>
      <trkpt lat="46.29303" lon="4.14736">
        <ele>369</ele>
        <time>2020-03-13T11:09:15Z</time>
      </trkpt>
      <trkpt lat="46.29304" lon="4.14695">
        <ele>366</ele>
        <time>2020-03-13T11:09:53Z</time>
      </trkpt>
      <trkpt lat="46.29306" lon="4.14675">
        <ele>364</ele>
        <time>2020-03-13T11:10:11Z</time>
      </trkpt>
      <trkpt lat="46.2932" lon="4.14629">
        <ele>362</ele>
        <time>2020-03-13T11:10:57Z</time>
      </trkpt>
      <trkpt lat="46.29326" lon="4.14574">
        <ele>361</ele>
        <time>2020-03-13T11:11:49Z</time>
      </trkpt>
      <trkpt lat="46.29326" lon="4.14544">
        <ele>359</ele>
        <time>2020-03-13T11:12:16Z</time>
      </trkpt>
      <trkpt lat="46.29319" lon="4.14491">
        <ele>357</ele>
        <time>2020-03-13T11:13:06Z</time>
      </trkpt>
      <trkpt lat="46.29316" lon="4.14449">
        <ele>355</ele>
        <time>2020-03-13T11:13:45Z</time>
      </trkpt>
      <trkpt lat="46.29316" lon="4.14392">
        <ele>355</ele>
        <time>2020-03-13T11:14:38Z</time>
      </trkpt>
      <trkpt lat="46.29378" lon="4.14347">
        <ele>354</ele>
        <time>2020-03-13T11:16:10Z</time>
      </trkpt>
      <trkpt lat="46.29409" lon="4.14282">
        <ele>355</ele>
        <time>2020-03-13T11:17:23Z</time>
      </trkpt>
      <trkpt lat="46.29415" lon="4.14286">
        <ele>354</ele>
        <time>2020-03-13T11:17:32Z</time>
      </trkpt>
      <trkpt lat="46.29409" lon="4.14282">
        <ele>355</ele>
        <time>2020-03-13T11:17:41Z</time>
      </trkpt>
      <trkpt lat="46.29371" lon="4.14234">
        <ele>356</ele>
        <time>2020-03-13T11:18:48Z</time>
      </trkpt>
      <trkpt lat="46.29364" lon="4.14231">
        <ele>357</ele>
        <time>2020-03-13T11:18:58Z</time>
      </trkpt>
      <trkpt lat="46.29366" lon="4.14221">
        <ele>356</ele>
        <time>2020-03-13T11:19:07Z</time>
      </trkpt>
      <trkpt lat="46.2936" lon="4.14217">
        <ele>356</ele>
        <time>2020-03-13T11:19:16Z</time>
      </trkpt>
      <trkpt lat="46.29331" lon="4.14185">
        <ele>356</ele>
        <time>2020-03-13T11:20:05Z</time>
      </trkpt>
      <trkpt lat="46.29322" lon="4.14179">
        <ele>356</ele>
        <time>2020-03-13T11:20:18Z</time>
      </trkpt>
      <trkpt lat="46.29274" lon="4.14162">
        <ele>355</ele>
        <time>2020-03-13T11:21:24Z</time>
      </trkpt>
      <trkpt lat="46.29245" lon="4.14142">
        <ele>354</ele>
        <time>2020-03-13T11:22:07Z</time>
      </trkpt>
      <trkpt lat="46.29188" lon="4.14125">
        <ele>352</ele>
        <time>2020-03-13T11:23:25Z</time>
      </trkpt>
      <trkpt lat="46.29127" lon="4.141">
        <ele>353</ele>
        <time>2020-03-13T11:24:49Z</time>
      </trkpt>
      <trkpt lat="46.29116" lon="4.141">
        <ele>354</ele>
        <time>2020-03-13T11:25:04Z</time>
      </trkpt>
      <trkpt lat="46.291" lon="4.14109">
        <ele>354</ele>
        <time>2020-03-13T11:25:27Z</time>
      </trkpt>
      <trkpt lat="46.29073" lon="4.14105">
        <ele>355</ele>
        <time>2020-03-13T11:26:03Z</time>
      </trkpt>
      <trkpt lat="46.29064" lon="4.14108">
        <ele>355</ele>
        <time>2020-03-13T11:26:15Z</time>
      </trkpt>
      <trkpt lat="46.29041" lon="4.14087">
        <ele>355</ele>
        <time>2020-03-13T11:26:52Z</time>
      </trkpt>
      <trkpt lat="46.29027" lon="4.14078">
        <ele>354</ele>
        <time>2020-03-13T11:27:12Z</time>
      </trkpt>
      <trkpt lat="46.28996" lon="4.14061">
        <ele>353</ele>
        <time>2020-03-13T11:27:56Z</time>
      </trkpt>
      <trkpt lat="46.28978" lon="4.14056">
        <ele>352</ele>
        <time>2020-03-13T11:28:21Z</time>
      </trkpt>
      <trkpt lat="46.28953" lon="4.14058">
        <ele>353</ele>
        <time>2020-03-13T11:28:54Z</time>
      </trkpt>
      <trkpt lat="46.28948" lon="4.14055">
        <ele>353</ele>
        <time>2020-03-13T11:29:01Z</time>
      </trkpt>
      <trkpt lat="46.2894" lon="4.14045">
        <ele>353</ele>
        <time>2020-03-13T11:29:15Z</time>
      </trkpt>
      <trkpt lat="46.28931" lon="4.14039">
        <ele>353</ele>
        <time>2020-03-13T11:29:29Z</time>
      </trkpt>
      <trkpt lat="46.28885" lon="4.1403">
        <ele>357</ele>
        <time>2020-03-13T11:30:31Z</time>
      </trkpt>
      <trkpt lat="46.28877" lon="4.14025">
        <ele>359</ele>
        <time>2020-03-13T11:30:42Z</time>
      </trkpt>
      <trkpt lat="46.28871" lon="4.14017">
        <ele>360</ele>
        <time>2020-03-13T11:30:53Z</time>
      </trkpt>
      <trkpt lat="46.28844" lon="4.13965">
        <ele>367</ele>
        <time>2020-03-13T11:31:53Z</time>
      </trkpt>
      <trkpt lat="46.28832" lon="4.13945">
        <ele>370</ele>
        <time>2020-03-13T11:32:18Z</time>
      </trkpt>
      <trkpt lat="46.2879" lon="4.13891">
        <ele>380</ele>
        <time>2020-03-13T11:33:33Z</time>
      </trkpt>
      <trkpt lat="46.28743" lon="4.13805">
        <ele>394</ele>
        <time>2020-03-13T11:35:14Z</time>
      </trkpt>
      <trkpt lat="46.28732" lon="4.13793">
        <ele>397</ele>
        <time>2020-03-13T11:35:32Z</time>
      </trkpt>
      <trkpt lat="46.28716" lon="4.1378">
        <ele>401</ele>
        <time>2020-03-13T11:35:57Z</time>
      </trkpt>
      <trkpt lat="46.28687" lon="4.13746">
        <ele>409</ele>
        <time>2020-03-13T11:36:46Z</time>
      </trkpt>
      <trkpt lat="46.28649" lon="4.13713">
        <ele>417</ele>
        <time>2020-03-13T11:37:45Z</time>
      </trkpt>
      <trkpt lat="46.28608" lon="4.13697">
        <ele>424</ele>
        <time>2020-03-13T11:38:42Z</time>
      </trkpt>
      <trkpt lat="46.2859" lon="4.13688">
        <ele>427</ele>
        <time>2020-03-13T11:39:08Z</time>
      </trkpt>
      <trkpt lat="46.28559" lon="4.13667">
        <ele>432</ele>
        <time>2020-03-13T11:39:53Z</time>
      </trkpt>
      <trkpt lat="46.28548" lon="4.13659">
        <ele>434</ele>
        <time>2020-03-13T11:40:10Z</time>
      </trkpt>
      <trkpt lat="46.28538" lon="4.13648">
        <ele>436</ele>
        <time>2020-03-13T11:40:26Z</time>
      </trkpt>
      <trkpt lat="46.28523" lon="4.13627">
        <ele>439</ele>
        <time>2020-03-13T11:40:54Z</time>
      </trkpt>
      <trkpt lat="46.28518" lon="4.13622">
        <ele>439</ele>
        <time>2020-03-13T11:41:02Z</time>
      </trkpt>
      <trkpt lat="46.28506" lon="4.13618">
        <ele>441</ele>
        <time>2020-03-13T11:41:19Z</time>
      </trkpt>
      <trkpt lat="46.28475" lon="4.13627">
        <ele>447</ele>
        <time>2020-03-13T11:42:01Z</time>
      </trkpt>
      <trkpt lat="46.28467" lon="4.13627">
        <ele>449</ele>
        <time>2020-03-13T11:42:12Z</time>
      </trkpt>
      <trkpt lat="46.28461" lon="4.13624">
        <ele>450</ele>
        <time>2020-03-13T11:42:20Z</time>
      </trkpt>
      <trkpt lat="46.28447" lon="4.13601">
        <ele>454</ele>
        <time>2020-03-13T11:42:48Z</time>
      </trkpt>
      <trkpt lat="46.28432" lon="4.13562">
        <ele>457</ele>
        <time>2020-03-13T11:43:30Z</time>
      </trkpt>
      <trkpt lat="46.28424" lon="4.13547">
        <ele>457</ele>
        <time>2020-03-13T11:43:47Z</time>
      </trkpt>
      <trkpt lat="46.28389" lon="4.13504">
        <ele>459</ele>
        <time>2020-03-13T11:44:48Z</time>
      </trkpt>
      <trkpt lat="46.2838" lon="4.13488">
        <ele>459</ele>
        <time>2020-03-13T11:45:07Z</time>
      </trkpt>
      <trkpt lat="46.28374" lon="4.13475">
        <ele>459</ele>
        <time>2020-03-13T11:45:22Z</time>
      </trkpt>
      <trkpt lat="46.28344" lon="4.13377">
        <ele>459</ele>
        <time>2020-03-13T11:47:01Z</time>
      </trkpt>
      <trkpt lat="46.2834" lon="4.13366">
        <ele>460</ele>
        <time>2020-03-13T11:47:12Z</time>
      </trkpt>
      <trkpt lat="46.28328" lon="4.1334">
        <ele>461</ele>
        <time>2020-03-13T11:47:41Z</time>
      </trkpt>
      <trkpt lat="46.28297" lon="4.13247">
        <ele>461</ele>
        <time>2020-03-13T11:49:16Z</time>
      </trkpt>
      <trkpt lat="46.2825" lon="4.13122">
        <ele>465</ele>
        <time>2020-03-13T11:51:27Z</time>
      </trkpt>
      <trkpt lat="46.28246" lon="4.13094">
        <ele>466</ele>
        <time>2020-03-13T11:51:54Z</time>
      </trkpt>
      <trkpt lat="46.28242" lon="4.13051">
        <ele>467</ele>
        <time>2020-03-13T11:52:34Z</time>
      </trkpt>
      <trkpt lat="46.28242" lon="4.12998">
        <ele>468</ele>
        <time>2020-03-13T11:53:23Z</time>
      </trkpt>
      <trkpt lat="46.28265" lon="4.13001">
        <ele>465</ele>
        <time>2020-03-13T11:53:53Z</time>
      </trkpt>
      <trkpt lat="46.28242" lon="4.12998">
        <ele>468</ele>
        <time>2020-03-13T11:54:24Z</time>
      </trkpt>
      <trkpt lat="46.28097" lon="4.12874">
        <ele>477</ele>
        <time>2020-03-13T11:58:09Z</time>
      </trkpt>
      <trkpt lat="46.28029" lon="4.12805">
        <ele>478</ele>
        <time>2020-03-13T12:00:00Z</time>
      </trkpt>
      <trkpt lat="46.28006" lon="4.12787">
        <ele>478</ele>
        <time>2020-03-13T12:00:35Z</time>
      </trkpt>
      <trkpt lat="46.27805" lon="4.12712">
        <ele>478</ele>
        <time>2020-03-13T12:05:12Z</time>
      </trkpt>
      <trkpt lat="46.27792" lon="4.12706">
        <ele>478</ele>
        <time>2020-03-13T12:05:30Z</time>
      </trkpt>
      <trkpt lat="46.27745" lon="4.12669">
        <ele>477</ele>
        <time>2020-03-13T12:06:41Z</time>
      </trkpt>
      <trkpt lat="46.27731" lon="4.12665">
        <ele>477</ele>
        <time>2020-03-13T12:07:00Z</time>
      </trkpt>
      <trkpt lat="46.27723" lon="4.12569">
        <ele>476</ele>
        <time>2020-03-13T12:08:30Z</time>
      </trkpt>
      <trkpt lat="46.27659" lon="4.12576">
        <ele>478</ele>
        <time>2020-03-13T12:09:55Z</time>
      </trkpt>
      <trkpt lat="46.27655" lon="4.12574">
        <ele>478</ele>
        <time>2020-03-13T12:10:01Z</time>
      </trkpt>
      <trkpt lat="46.27643" lon="4.12545">
        <ele>477</ele>
        <time>2020-03-13T12:10:32Z</time>
      </trkpt>
      <trkpt lat="46.27636" lon="4.12552">
        <ele>478</ele>
        <time>2020-03-13T12:10:43Z</time>
      </trkpt>
      <trkpt lat="46.27566" lon="4.1245">
        <ele>476</ele>
        <time>2020-03-13T12:12:56Z</time>
      </trkpt>
      <trkpt lat="46.27566" lon="4.1245">
        <ele>476</ele>
        <time>2020-03-13T12:12:56Z</time>
      </trkpt>
      <trkpt lat="46.27526" lon="4.12362">
        <ele>477</ele>
        <time>2020-03-13T12:14:33Z</time>
      </trkpt>
      <trkpt lat="46.27526" lon="4.12362">
        <ele>477</ele>
        <time>2020-03-13T12:14:33Z</time>
      </trkpt>
      <trkpt lat="46.27468" lon="4.12259">
        <ele>474</ele>
        <time>2020-03-13T12:16:36Z</time>
      </trkpt>
      <trkpt lat="46.27468" lon="4.12259">
        <ele>474</ele>
        <time>2020-03-13T12:16:36Z</time>
      </trkpt>
      <trkpt lat="46.27432" lon="4.12204">
        <ele>473</ele>
        <time>2020-03-13T12:17:46Z</time>
      </trkpt>
      <trkpt lat="46.27432" lon="4.12204">
        <ele>473</ele>
        <time>2020-03-13T12:17:46Z</time>
      </trkpt>
      <trkpt lat="46.27365" lon="4.12155">
        <ele>468</ele>
        <time>2020-03-13T12:19:26Z</time>
      </trkpt>
      <trkpt lat="46.27365" lon="4.12155">
        <ele>468</ele>
        <time>2020-03-13T12:19:26Z</time>
      </trkpt>
      <trkpt lat="46.27317" lon="4.12077">
        <ele>467</ele>
        <time>2020-03-13T12:21:02Z</time>
      </trkpt>
      <trkpt lat="46.27317" lon="4.12077">
        <ele>467</ele>
        <time>2020-03-13T12:21:02Z</time>
      </trkpt>
      <trkpt lat="46.27279" lon="4.12052">
        <ele>464</ele>
        <time>2020-03-13T12:21:58Z</time>
      </trkpt>
      <trkpt lat="46.27279" lon="4.12052">
        <ele>464</ele>
        <time>2020-03-13T12:21:58Z</time>
      </trkpt>
      <trkpt lat="46.27277" lon="4.12155">
        <ele>460</ele>
        <time>2020-03-13T12:23:33Z</time>
      </trkpt>
      <trkpt lat="46.27277" lon="4.12155">
        <ele>460</ele>
        <time>2020-03-13T12:23:33Z</time>
      </trkpt>
      <trkpt lat="46.27257" lon="4.12205">
        <ele>455</ele>
        <time>2020-03-13T12:24:26Z</time>
      </trkpt>
      <trkpt lat="46.27257" lon="4.12205">
        <ele>455</ele>
        <time>2020-03-13T12:24:26Z</time>
      </trkpt>
      <trkpt lat="46.27255" lon="4.12241">
        <ele>453</ele>
        <time>2020-03-13T12:24:59Z</time>
      </trkpt>
      <trkpt lat="46.27255" lon="4.12241">
        <ele>453</ele>
        <time>2020-03-13T12:24:59Z</time>
      </trkpt>
      <trkpt lat="46.27196" lon="4.12265">
        <ele>440</ele>
        <time>2020-03-13T12:26:21Z</time>
      </trkpt>
      <trkpt lat="46.27196" lon="4.12265">
        <ele>440</ele>
        <time>2020-03-13T12:26:21Z</time>
      </trkpt>
      <trkpt lat="46.2716" lon="4.12223">
        <ele>438</ele>
        <time>2020-03-13T12:27:23Z</time>
      </trkpt>
      <trkpt lat="46.2716" lon="4.12223">
        <ele>438</ele>
        <time>2020-03-13T12:27:23Z</time>
      </trkpt>
      <trkpt lat="46.27127" lon="4.12187">
        <ele>435</ele>
        <time>2020-03-13T12:28:18Z</time>
      </trkpt>
      <trkpt lat="46.27127" lon="4.12187">
        <ele>435</ele>
        <time>2020-03-13T12:28:18Z</time>
      </trkpt>
      <trkpt lat="46.27096" lon="4.1217">
        <ele>429</ele>
        <time>2020-03-13T12:29:02Z</time>
      </trkpt>
      <trkpt lat="46.27096" lon="4.1217">
        <ele>429</ele>
        <time>2020-03-13T12:29:02Z</time>
      </trkpt>
      <trkpt lat="46.27075" lon="4.12123">
        <ele>428</ele>
        <time>2020-03-13T12:29:54Z</time>
      </trkpt>
      <trkpt lat="46.27075" lon="4.12123">
        <ele>428</ele>
        <time>2020-03-13T12:29:54Z</time>
      </trkpt>
      <trkpt lat="46.27051" lon="4.12055">
        <ele>427</ele>
        <time>2020-03-13T12:31:04Z</time>
      </trkpt>
      <trkpt lat="46.27051" lon="4.12055">
        <ele>427</ele>
        <time>2020-03-13T12:31:04Z</time>
      </trkpt>
      <trkpt lat="46.27003" lon="4.12036">
        <ele>418</ele>
        <time>2020-03-13T12:32:11Z</time>
      </trkpt>
      <trkpt lat="46.27003" lon="4.12036">
        <ele>418</ele>
        <time>2020-03-13T12:32:11Z</time>
      </trkpt>
      <trkpt lat="46.26968" lon="4.12001">
        <ele>414</ele>
        <time>2020-03-13T12:33:08Z</time>
      </trkpt>
      <trkpt lat="46.26968" lon="4.12001">
        <ele>414</ele>
        <time>2020-03-13T12:33:08Z</time>
      </trkpt>
      <trkpt lat="46.2695" lon="4.11929">
        <ele>420</ele>
        <time>2020-03-13T12:34:18Z</time>
      </trkpt>
      <trkpt lat="46.2695" lon="4.11929">
        <ele>420</ele>
        <time>2020-03-13T12:34:18Z</time>
      </trkpt>
      <trkpt lat="46.26924" lon="4.119">
        <ele>417</ele>
        <time>2020-03-13T12:35:02Z</time>
      </trkpt>
      <trkpt lat="46.26924" lon="4.119">
        <ele>417</ele>
        <time>2020-03-13T12:35:02Z</time>
      </trkpt>
      <trkpt lat="46.26902" lon="4.11888">
        <ele>413</ele>
        <time>2020-03-13T12:35:33Z</time>
      </trkpt>
      <trkpt lat="46.26902" lon="4.11888">
        <ele>413</ele>
        <time>2020-03-13T12:35:33Z</time>
      </trkpt>
      <trkpt lat="46.26885" lon="4.11823">
        <ele>415</ele>
        <time>2020-03-13T12:36:38Z</time>
      </trkpt>
      <trkpt lat="46.26885" lon="4.11823">
        <ele>415</ele>
        <time>2020-03-13T12:36:38Z</time>
      </trkpt>
      <trkpt lat="46.26815" lon="4.11724">
        <ele>406</ele>
        <time>2020-03-13T12:38:48Z</time>
      </trkpt>
      <trkpt lat="46.26815" lon="4.11724">
        <ele>406</ele>
        <time>2020-03-13T12:38:48Z</time>
      </trkpt>
      <trkpt lat="46.26785" lon="4.11662">
        <ele>405</ele>
        <time>2020-03-13T12:39:58Z</time>
      </trkpt>
      <trkpt lat="46.26785" lon="4.11662">
        <ele>405</ele>
        <time>2020-03-13T12:39:58Z</time>
      </trkpt>
      <trkpt lat="46.26765" lon="4.11596">
        <ele>410</ele>
        <time>2020-03-13T12:41:04Z</time>
      </trkpt>
      <trkpt lat="46.26765" lon="4.11596">
        <ele>410</ele>
        <time>2020-03-13T12:41:04Z</time>
      </trkpt>
      <trkpt lat="46.26736" lon="4.11543">
        <ele>412</ele>
        <time>2020-03-13T12:42:07Z</time>
      </trkpt>
      <trkpt lat="46.26736" lon="4.11543">
        <ele>412</ele>
        <time>2020-03-13T12:42:07Z</time>
      </trkpt>
      <trkpt lat="46.26717" lon="4.11519">
        <ele>412</ele>
        <time>2020-03-13T12:42:41Z</time>
      </trkpt>
      <trkpt lat="46.26717" lon="4.11519">
        <ele>412</ele>
        <time>2020-03-13T12:42:41Z</time>
      </trkpt>
      <trkpt lat="46.26627" lon="4.11318">
        <ele>416</ele>
        <time>2020-03-13T12:46:22Z</time>
      </trkpt>
      <trkpt lat="46.26627" lon="4.11318">
        <ele>416</ele>
        <time>2020-03-13T12:46:22Z</time>
      </trkpt>
      <trkpt lat="46.2658" lon="4.11291">
        <ele>411</ele>
        <time>2020-03-13T12:47:29Z</time>
      </trkpt>
      <trkpt lat="46.2658" lon="4.11291">
        <ele>411</ele>
        <time>2020-03-13T12:47:29Z</time>
      </trkpt>
      <trkpt lat="46.26531" lon="4.11333">
        <ele>400</ele>
        <time>2020-03-13T12:48:45Z</time>
      </trkpt>
      <trkpt lat="46.26531" lon="4.11333">
        <ele>400</ele>
        <time>2020-03-13T12:48:45Z</time>
      </trkpt>
      <trkpt lat="46.26492" lon="4.11254">
        <ele>398</ele>
        <time>2020-03-13T12:50:15Z</time>
      </trkpt>
      <trkpt lat="46.26492" lon="4.11254">
        <ele>398</ele>
        <time>2020-03-13T12:50:15Z</time>
      </trkpt>
      <trkpt lat="46.26476" lon="4.11164">
        <ele>398</ele>
        <time>2020-03-13T12:51:40Z</time>
      </trkpt>
      <trkpt lat="46.26476" lon="4.11164">
        <ele>398</ele>
        <time>2020-03-13T12:51:40Z</time>
      </trkpt>
      <trkpt lat="46.26436" lon="4.1109">
        <ele>396</ele>
        <time>2020-03-13T12:53:07Z</time>
      </trkpt>
      <trkpt lat="46.26436" lon="4.1109">
        <ele>396</ele>
        <time>2020-03-13T12:53:07Z</time>
      </trkpt>
      <trkpt lat="46.26425" lon="4.11006">
        <ele>400</ele>
        <time>2020-03-13T12:54:26Z</time>
      </trkpt>
      <trkpt lat="46.26425" lon="4.11006">
        <ele>400</ele>
        <time>2020-03-13T12:54:26Z</time>
      </trkpt>
      <trkpt lat="46.26428" lon="4.1089">
        <ele>403</ele>
        <time>2020-03-13T12:56:13Z</time>
      </trkpt>
      <trkpt lat="46.26428" lon="4.1089">
        <ele>403</ele>
        <time>2020-03-13T12:56:13Z</time>
      </trkpt>
      <trkpt lat="46.2642" lon="4.10836">
        <ele>403</ele>
        <time>2020-03-13T12:57:04Z</time>
      </trkpt>
      <trkpt lat="46.2642" lon="4.10836">
        <ele>403</ele>
        <time>2020-03-13T12:57:04Z</time>
      </trkpt>
      <trkpt lat="46.26419" lon="4.10791">
        <ele>400</ele>
        <time>2020-03-13T12:57:45Z</time>
      </trkpt>
      <trkpt lat="46.26419" lon="4.10791">
        <ele>400</ele>
        <time>2020-03-13T12:57:45Z</time>
      </trkpt>
      <trkpt lat="46.26415" lon="4.10699">
        <ele>392</ele>
        <time>2020-03-13T12:59:10Z</time>
      </trkpt>
      <trkpt lat="46.26415" lon="4.10699">
        <ele>392</ele>
        <time>2020-03-13T12:59:10Z</time>
      </trkpt>
      <trkpt lat="46.26421" lon="4.10623">
        <ele>387</ele>
        <time>2020-03-13T13:00:21Z</time>
      </trkpt>
      <trkpt lat="46.26421" lon="4.10623">
        <ele>387</ele>
        <time>2020-03-13T13:00:21Z</time>
      </trkpt>
      <trkpt lat="46.26414" lon="4.10569">
        <ele>384</ele>
        <time>2020-03-13T13:01:12Z</time>
      </trkpt>
      <trkpt lat="46.26414" lon="4.10569">
        <ele>384</ele>
        <time>2020-03-13T13:01:12Z</time>
      </trkpt>
      <trkpt lat="46.26383" lon="4.10575">
        <ele>376</ele>
        <time>2020-03-13T13:01:53Z</time>
      </trkpt>
      <trkpt lat="46.26383" lon="4.10575">
        <ele>376</ele>
        <time>2020-03-13T13:01:53Z</time>
      </trkpt>
      <trkpt lat="46.26283" lon="4.10487">
        <ele>360</ele>
        <time>2020-03-13T13:04:30Z</time>
      </trkpt>
      <trkpt lat="46.26284" lon="4.10485">
        <ele>360</ele>
        <time>2020-03-13T13:04:32Z</time>
      </trkpt>
      <trkpt lat="46.26172" lon="4.10328">
        <ele>345</ele>
        <time>2020-03-13T13:08:00Z</time>
      </trkpt>
      <trkpt lat="46.26127" lon="4.10258">
        <ele>344</ele>
        <time>2020-03-13T13:09:28Z</time>
      </trkpt>
      <trkpt lat="46.26088" lon="4.1019">
        <ele>336</ele>
        <time>2020-03-13T13:10:50Z</time>
      </trkpt>
      <trkpt lat="46.26091" lon="4.1015">
        <ele>336</ele>
        <time>2020-03-13T13:11:27Z</time>
      </trkpt>
      <trkpt lat="46.26083" lon="4.10059">
        <ele>332</ele>
        <time>2020-03-13T13:12:52Z</time>
      </trkpt>
      <trkpt lat="46.26087" lon="4.09877">
        <ele>336</ele>
        <time>2020-03-13T13:15:40Z</time>
      </trkpt>
      <trkpt lat="46.26086" lon="4.09838">
        <ele>338</ele>
        <time>2020-03-13T13:16:16Z</time>
      </trkpt>
      <trkpt lat="46.26089" lon="4.09814">
        <ele>339</ele>
        <time>2020-03-13T13:16:38Z</time>
      </trkpt>
      <trkpt lat="46.26097" lon="4.09768">
        <ele>342</ele>
        <time>2020-03-13T13:17:22Z</time>
      </trkpt>
      <trkpt lat="46.26092" lon="4.09707">
        <ele>342</ele>
        <time>2020-03-13T13:18:18Z</time>
      </trkpt>
      <trkpt lat="46.26085" lon="4.09673">
        <ele>341</ele>
        <time>2020-03-13T13:18:51Z</time>
      </trkpt>
      <trkpt lat="46.26079" lon="4.09642">
        <ele>340</ele>
        <time>2020-03-13T13:19:21Z</time>
      </trkpt>
      <trkpt lat="46.26084" lon="4.09614">
        <ele>341</ele>
        <time>2020-03-13T13:19:48Z</time>
      </trkpt>
      <trkpt lat="46.26099" lon="4.09587">
        <ele>345</ele>
        <time>2020-03-13T13:20:20Z</time>
      </trkpt>
      <trkpt lat="46.26121" lon="4.09496">
        <ele>349</ele>
        <time>2020-03-13T13:21:48Z</time>
      </trkpt>
      <trkpt lat="46.2615" lon="4.09395">
        <ele>357</ele>
        <time>2020-03-13T13:23:29Z</time>
      </trkpt>
      <trkpt lat="46.26174" lon="4.09349">
        <ele>365</ele>
        <time>2020-03-13T13:24:23Z</time>
      </trkpt>
      <trkpt lat="46.26184" lon="4.09307">
        <ele>367</ele>
        <time>2020-03-13T13:25:04Z</time>
      </trkpt>
      <trkpt lat="46.26193" lon="4.0929">
        <ele>369</ele>
        <time>2020-03-13T13:25:23Z</time>
      </trkpt>
      <trkpt lat="46.26209" lon="4.09258">
        <ele>373</ele>
        <time>2020-03-13T13:26:00Z</time>
      </trkpt>
      <trkpt lat="46.26212" lon="4.09256">
        <ele>374</ele>
        <time>2020-03-13T13:26:04Z</time>
      </trkpt>
      <trkpt lat="46.26221" lon="4.09207">
        <ele>375</ele>
        <time>2020-03-13T13:26:51Z</time>
      </trkpt>
      <trkpt lat="46.26236" lon="4.09148">
        <ele>379</ele>
        <time>2020-03-13T13:27:49Z</time>
      </trkpt>
      <trkpt lat="46.26244" lon="4.09127">
        <ele>381</ele>
        <time>2020-03-13T13:28:11Z</time>
      </trkpt>
      <trkpt lat="46.26235" lon="4.09101">
        <ele>378</ele>
        <time>2020-03-13T13:28:38Z</time>
      </trkpt>
      <trkpt lat="46.26237" lon="4.0905">
        <ele>377</ele>
        <time>2020-03-13T13:29:25Z</time>
      </trkpt>
      <trkpt lat="46.26236" lon="4.08999">
        <ele>375</ele>
        <time>2020-03-13T13:30:12Z</time>
      </trkpt>
      <trkpt lat="46.26235" lon="4.08948">
        <ele>374</ele>
        <time>2020-03-13T13:30:59Z</time>
      </trkpt>
      <trkpt lat="46.26231" lon="4.08909">
        <ele>372</ele>
        <time>2020-03-13T13:31:35Z</time>
      </trkpt>
      <trkpt lat="46.26233" lon="4.08872">
        <ele>372</ele>
        <time>2020-03-13T13:32:10Z</time>
      </trkpt>
      <trkpt lat="46.26239" lon="4.08844">
        <ele>374</ele>
        <time>2020-03-13T13:32:37Z</time>
      </trkpt>
      <trkpt lat="46.26257" lon="4.08811">
        <ele>377</ele>
        <time>2020-03-13T13:33:16Z</time>
      </trkpt>
      <trkpt lat="46.26262" lon="4.08793">
        <ele>377</ele>
        <time>2020-03-13T13:33:33Z</time>
      </trkpt>
      <trkpt lat="46.26288" lon="4.08739">
        <ele>381</ele>
        <time>2020-03-13T13:34:34Z</time>
      </trkpt>
      <trkpt lat="46.26294" lon="4.08719">
        <ele>381</ele>
        <time>2020-03-13T13:34:54Z</time>
      </trkpt>
      <trkpt lat="46.26288" lon="4.08739">
        <ele>381</ele>
        <time>2020-03-13T13:35:14Z</time>
      </trkpt>
      <trkpt lat="46.26262" lon="4.08793">
        <ele>377</ele>
        <time>2020-03-13T13:36:15Z</time>
      </trkpt>
      <trkpt lat="46.26257" lon="4.08811">
        <ele>377</ele>
        <time>2020-03-13T13:36:33Z</time>
      </trkpt>
      <trkpt lat="46.26239" lon="4.08844">
        <ele>374</ele>
        <time>2020-03-13T13:37:12Z</time>
      </trkpt>
      <trkpt lat="46.26233" lon="4.08872">
        <ele>372</ele>
        <time>2020-03-13T13:37:39Z</time>
      </trkpt>
      <trkpt lat="46.26231" lon="4.08909">
        <ele>372</ele>
        <time>2020-03-13T13:38:13Z</time>
      </trkpt>
      <trkpt lat="46.26235" lon="4.08948">
        <ele>374</ele>
        <time>2020-03-13T13:38:49Z</time>
      </trkpt>
      <trkpt lat="46.26236" lon="4.08999">
        <ele>375</ele>
        <time>2020-03-13T13:39:36Z</time>
      </trkpt>
      <trkpt lat="46.26237" lon="4.0905">
        <ele>377</ele>
        <time>2020-03-13T13:40:24Z</time>
      </trkpt>
      <trkpt lat="46.26235" lon="4.09101">
        <ele>378</ele>
        <time>2020-03-13T13:41:11Z</time>
      </trkpt>
      <trkpt lat="46.26244" lon="4.09127">
        <ele>381</ele>
        <time>2020-03-13T13:41:38Z</time>
      </trkpt>
      <trkpt lat="46.26236" lon="4.09148">
        <ele>379</ele>
        <time>2020-03-13T13:42:00Z</time>
      </trkpt>
      <trkpt lat="46.26221" lon="4.09207">
        <ele>375</ele>
        <time>2020-03-13T13:42:58Z</time>
      </trkpt>
      <trkpt lat="46.26212" lon="4.09256">
        <ele>374</ele>
        <time>2020-03-13T13:43:44Z</time>
      </trkpt>
      <trkpt lat="46.26209" lon="4.09258">
        <ele>373</ele>
        <time>2020-03-13T13:43:49Z</time>
      </trkpt>
      <trkpt lat="46.26193" lon="4.0929">
        <ele>369</ele>
        <time>2020-03-13T13:44:25Z</time>
      </trkpt>
      <trkpt lat="46.26184" lon="4.09307">
        <ele>367</ele>
        <time>2020-03-13T13:44:45Z</time>
      </trkpt>
      <trkpt lat="46.26174" lon="4.09349">
        <ele>365</ele>
        <time>2020-03-13T13:45:26Z</time>
      </trkpt>
      <trkpt lat="46.2615" lon="4.09395">
        <ele>357</ele>
        <time>2020-03-13T13:46:19Z</time>
      </trkpt>
      <trkpt lat="46.26121" lon="4.09496">
        <ele>349</ele>
        <time>2020-03-13T13:48:00Z</time>
      </trkpt>
      <trkpt lat="46.26099" lon="4.09587">
        <ele>345</ele>
        <time>2020-03-13T13:49:29Z</time>
      </trkpt>
      <trkpt lat="46.26084" lon="4.09614">
        <ele>341</ele>
        <time>2020-03-13T13:50:01Z</time>
      </trkpt>
      <trkpt lat="46.26079" lon="4.09642">
        <ele>340</ele>
        <time>2020-03-13T13:50:28Z</time>
      </trkpt>
      <trkpt lat="46.26085" lon="4.09673">
        <ele>341</ele>
        <time>2020-03-13T13:50:57Z</time>
      </trkpt>
      <trkpt lat="46.26092" lon="4.09707">
        <ele>342</ele>
        <time>2020-03-13T13:51:30Z</time>
      </trkpt>
      <trkpt lat="46.26097" lon="4.09768">
        <ele>342</ele>
        <time>2020-03-13T13:52:27Z</time>
      </trkpt>
      <trkpt lat="46.26089" lon="4.09814">
        <ele>339</ele>
        <time>2020-03-13T13:53:11Z</time>
      </trkpt>
      <trkpt lat="46.26086" lon="4.09838">
        <ele>338</ele>
        <time>2020-03-13T13:53:33Z</time>
      </trkpt>
      <trkpt lat="46.26087" lon="4.09877">
        <ele>336</ele>
        <time>2020-03-13T13:54:09Z</time>
      </trkpt>
      <trkpt lat="46.26083" lon="4.10059">
        <ele>332</ele>
        <time>2020-03-13T13:56:57Z</time>
      </trkpt>
      <trkpt lat="46.26091" lon="4.1015">
        <ele>336</ele>
        <time>2020-03-13T13:58:22Z</time>
      </trkpt>
      <trkpt lat="46.26088" lon="4.1019">
        <ele>336</ele>
        <time>2020-03-13T13:58:59Z</time>
      </trkpt>
      <trkpt lat="46.26127" lon="4.10258">
        <ele>344</ele>
        <time>2020-03-13T14:00:20Z</time>
      </trkpt>
      <trkpt lat="46.26127" lon="4.10292">
        <ele>341</ele>
        <time>2020-03-13T14:00:52Z</time>
      </trkpt>
      <trkpt lat="46.26128" lon="4.1032">
        <ele>339</ele>
        <time>2020-03-13T14:01:18Z</time>
      </trkpt>
      <trkpt lat="46.2612" lon="4.10361">
        <ele>336</ele>
        <time>2020-03-13T14:01:57Z</time>
      </trkpt>
      <trkpt lat="46.26114" lon="4.1038">
        <ele>335</ele>
        <time>2020-03-13T14:02:16Z</time>
      </trkpt>
      <trkpt lat="46.26103" lon="4.10394">
        <ele>334</ele>
        <time>2020-03-13T14:02:36Z</time>
      </trkpt>
      <trkpt lat="46.26096" lon="4.10401">
        <ele>333</ele>
        <time>2020-03-13T14:02:47Z</time>
      </trkpt>
      <trkpt lat="46.26064" lon="4.10436">
        <ele>334</ele>
        <time>2020-03-13T14:03:41Z</time>
      </trkpt>
      <trkpt lat="46.26043" lon="4.10465">
        <ele>337</ele>
        <time>2020-03-13T14:04:19Z</time>
      </trkpt>
      <trkpt lat="46.2601" lon="4.10549">
        <ele>343</ele>
        <time>2020-03-13T14:05:48Z</time>
      </trkpt>
      <trkpt lat="46.26" lon="4.10589">
        <ele>345</ele>
        <time>2020-03-13T14:06:28Z</time>
      </trkpt>
      <trkpt lat="46.25993" lon="4.10603">
        <ele>345</ele>
        <time>2020-03-13T14:06:44Z</time>
      </trkpt>
      <trkpt lat="46.25999" lon="4.10609">
        <ele>345</ele>
        <time>2020-03-13T14:06:53Z</time>
      </trkpt>
      <trkpt lat="46.26024" lon="4.10654">
        <ele>343</ele>
        <time>2020-03-13T14:07:47Z</time>
      </trkpt>
      <trkpt lat="46.26024" lon="4.10654">
        <ele>343</ele>
        <time>2020-03-13T14:07:47Z</time>
      </trkpt>
      <trkpt lat="46.26045" lon="4.10701">
        <ele>342</ele>
        <time>2020-03-13T14:08:38Z</time>
      </trkpt>
      <trkpt lat="46.26045" lon="4.10701">
        <ele>342</ele>
        <time>2020-03-13T14:08:38Z</time>
      </trkpt>
      <trkpt lat="46.26057" lon="4.10751">
        <ele>342</ele>
        <time>2020-03-13T14:09:27Z</time>
      </trkpt>
      <trkpt lat="46.26057" lon="4.10751">
        <ele>342</ele>
        <time>2020-03-13T14:09:27Z</time>
      </trkpt>
      <trkpt lat="46.26061" lon="4.10811">
        <ele>343</ele>
        <time>2020-03-13T14:10:23Z</time>
      </trkpt>
      <trkpt lat="46.26061" lon="4.10811">
        <ele>343</ele>
        <time>2020-03-13T14:10:23Z</time>
      </trkpt>
      <trkpt lat="46.2605" lon="4.109">
        <ele>348</ele>
        <time>2020-03-13T14:11:46Z</time>
      </trkpt>
      <trkpt lat="46.2605" lon="4.109">
        <ele>348</ele>
        <time>2020-03-13T14:11:46Z</time>
      </trkpt>
      <trkpt lat="46.26056" lon="4.10979">
        <ele>355</ele>
        <time>2020-03-13T14:12:59Z</time>
      </trkpt>
      <trkpt lat="46.26056" lon="4.10979">
        <ele>355</ele>
        <time>2020-03-13T14:12:59Z</time>
      </trkpt>
      <trkpt lat="46.26044" lon="4.11081">
        <ele>366</ele>
        <time>2020-03-13T14:14:35Z</time>
      </trkpt>
      <trkpt lat="46.26044" lon="4.11081">
        <ele>366</ele>
        <time>2020-03-13T14:14:35Z</time>
      </trkpt>
      <trkpt lat="46.26034" lon="4.11145">
        <ele>375</ele>
        <time>2020-03-13T14:15:35Z</time>
      </trkpt>
      <trkpt lat="46.26034" lon="4.11145">
        <ele>375</ele>
        <time>2020-03-13T14:15:35Z</time>
      </trkpt>
      <trkpt lat="46.26033" lon="4.11223">
        <ele>384</ele>
        <time>2020-03-13T14:16:47Z</time>
      </trkpt>
      <trkpt lat="46.26033" lon="4.11223">
        <ele>384</ele>
        <time>2020-03-13T14:16:47Z</time>
      </trkpt>
      <trkpt lat="46.26037" lon="4.11321">
        <ele>390</ele>
        <time>2020-03-13T14:18:18Z</time>
      </trkpt>
      <trkpt lat="46.26037" lon="4.11321">
        <ele>390</ele>
        <time>2020-03-13T14:18:18Z</time>
      </trkpt>
      <trkpt lat="46.26027" lon="4.11347">
        <ele>393</ele>
        <time>2020-03-13T14:18:45Z</time>
      </trkpt>
      <trkpt lat="46.26027" lon="4.11347">
        <ele>393</ele>
        <time>2020-03-13T14:18:46Z</time>
      </trkpt>
      <trkpt lat="46.25975" lon="4.11365">
        <ele>399</ele>
        <time>2020-03-13T14:19:57Z</time>
      </trkpt>
      <trkpt lat="46.25975" lon="4.11365">
        <ele>399</ele>
        <time>2020-03-13T14:19:57Z</time>
      </trkpt>
      <trkpt lat="46.25969" lon="4.11417">
        <ele>403</ele>
        <time>2020-03-13T14:20:46Z</time>
      </trkpt>
      <trkpt lat="46.25969" lon="4.11417">
        <ele>403</ele>
        <time>2020-03-13T14:20:46Z</time>
      </trkpt>
      <trkpt lat="46.25878" lon="4.11496">
        <ele>414</ele>
        <time>2020-03-13T14:23:07Z</time>
      </trkpt>
      <trkpt lat="46.25878" lon="4.11496">
        <ele>414</ele>
        <time>2020-03-13T14:23:07Z</time>
      </trkpt>
      <trkpt lat="46.25724" lon="4.11573">
        <ele>421</ele>
        <time>2020-03-13T14:26:45Z</time>
      </trkpt>
      <trkpt lat="46.25724" lon="4.11573">
        <ele>421</ele>
        <time>2020-03-13T14:26:45Z</time>
      </trkpt>
      <trkpt lat="46.25675" lon="4.11603">
        <ele>420</ele>
        <time>2020-03-13T14:27:56Z</time>
      </trkpt>
      <trkpt lat="46.25675" lon="4.11603">
        <ele>420</ele>
        <time>2020-03-13T14:27:56Z</time>
      </trkpt>
      <trkpt lat="46.25617" lon="4.1168">
        <ele>424</ele>
        <time>2020-03-13T14:29:41Z</time>
      </trkpt>
      <trkpt lat="46.25617" lon="4.1168">
        <ele>424</ele>
        <time>2020-03-13T14:29:41Z</time>
      </trkpt>
      <trkpt lat="46.25512" lon="4.11731">
        <ele>422</ele>
        <time>2020-03-13T14:32:09Z</time>
      </trkpt>
      <trkpt lat="46.25512" lon="4.11731">
        <ele>422</ele>
        <time>2020-03-13T14:32:09Z</time>
      </trkpt>
      <trkpt lat="46.2545" lon="4.1181">
        <ele>426</ele>
        <time>2020-03-13T14:33:59Z</time>
      </trkpt>
      <trkpt lat="46.2545" lon="4.1181">
        <ele>426</ele>
        <time>2020-03-13T14:33:59Z</time>
      </trkpt>
      <trkpt lat="46.25406" lon="4.1185">
        <ele>426</ele>
        <time>2020-03-13T14:35:08Z</time>
      </trkpt>
      <trkpt lat="46.25406" lon="4.1185">
        <ele>426</ele>
        <time>2020-03-13T14:35:08Z</time>
      </trkpt>
      <trkpt lat="46.25339" lon="4.11894">
        <ele>424</ele>
        <time>2020-03-13T14:36:46Z</time>
      </trkpt>
      <trkpt lat="46.25339" lon="4.11894">
        <ele>424</ele>
        <time>2020-03-13T14:36:46Z</time>
      </trkpt>
      <trkpt lat="46.25291" lon="4.11938">
        <ele>422</ele>
        <time>2020-03-13T14:38:02Z</time>
      </trkpt>
      <trkpt lat="46.25291" lon="4.11938">
        <ele>422</ele>
        <time>2020-03-13T14:38:02Z</time>
      </trkpt>
      <trkpt lat="46.2523" lon="4.11999">
        <ele>425</ele>
        <time>2020-03-13T14:39:41Z</time>
      </trkpt>
      <trkpt lat="46.2523" lon="4.11999">
        <ele>425</ele>
        <time>2020-03-13T14:39:41Z</time>
      </trkpt>
      <trkpt lat="46.25176" lon="4.1206">
        <ele>427</ele>
        <time>2020-03-13T14:41:13Z</time>
      </trkpt>
      <trkpt lat="46.25176" lon="4.1206">
        <ele>427</ele>
        <time>2020-03-13T14:41:13Z</time>
      </trkpt>
      <trkpt lat="46.25099" lon="4.12108">
        <ele>428</ele>
        <time>2020-03-13T14:43:05Z</time>
      </trkpt>
      <trkpt lat="46.25099" lon="4.12108">
        <ele>428</ele>
        <time>2020-03-13T14:43:05Z</time>
      </trkpt>
      <trkpt lat="46.25048" lon="4.12184">
        <ele>429</ele>
        <time>2020-03-13T14:44:42Z</time>
      </trkpt>
      <trkpt lat="46.25048" lon="4.12184">
        <ele>429</ele>
        <time>2020-03-13T14:44:43Z</time>
      </trkpt>
      <trkpt lat="46.24997" lon="4.12231">
        <ele>430</ele>
        <time>2020-03-13T14:46:03Z</time>
      </trkpt>
      <trkpt lat="46.24997" lon="4.12231">
        <ele>430</ele>
        <time>2020-03-13T14:46:03Z</time>
      </trkpt>
      <trkpt lat="46.2496" lon="4.12334">
        <ele>434</ele>
        <time>2020-03-13T14:47:50Z</time>
      </trkpt>
      <trkpt lat="46.2496" lon="4.12334">
        <ele>434</ele>
        <time>2020-03-13T14:47:50Z</time>
      </trkpt>
      <trkpt lat="46.24921" lon="4.12404">
        <ele>436</ele>
        <time>2020-03-13T14:49:13Z</time>
      </trkpt>
      <trkpt lat="46.24921" lon="4.12404">
        <ele>436</ele>
        <time>2020-03-13T14:49:13Z</time>
      </trkpt>
      <trkpt lat="46.24863" lon="4.12453">
        <ele>438</ele>
        <time>2020-03-13T14:50:43Z</time>
      </trkpt>
      <trkpt lat="46.24863" lon="4.12453">
        <ele>438</ele>
        <time>2020-03-13T14:50:43Z</time>
      </trkpt>
      <trkpt lat="46.24803" lon="4.12513">
        <ele>443</ele>
        <time>2020-03-13T14:52:20Z</time>
      </trkpt>
      <trkpt lat="46.24803" lon="4.12513">
        <ele>443</ele>
        <time>2020-03-13T14:52:20Z</time>
      </trkpt>
      <trkpt lat="46.24745" lon="4.12577">
        <ele>444</ele>
        <time>2020-03-13T14:53:58Z</time>
      </trkpt>
      <trkpt lat="46.24745" lon="4.12577">
        <ele>444</ele>
        <time>2020-03-13T14:53:58Z</time>
      </trkpt>
      <trkpt lat="46.24714" lon="4.12616">
        <ele>447</ele>
        <time>2020-03-13T14:54:53Z</time>
      </trkpt>
      <trkpt lat="46.24714" lon="4.12616">
        <ele>447</ele>
        <time>2020-03-13T14:54:53Z</time>
      </trkpt>
      <trkpt lat="46.24682" lon="4.12688">
        <ele>453</ele>
        <time>2020-03-13T14:56:12Z</time>
      </trkpt>
      <trkpt lat="46.24682" lon="4.12688">
        <ele>453</ele>
        <time>2020-03-13T14:56:12Z</time>
      </trkpt>
      <trkpt lat="46.2464" lon="4.12775">
        <ele>459</ele>
        <time>2020-03-13T14:57:50Z</time>
      </trkpt>
      <trkpt lat="46.2464" lon="4.12775">
        <ele>459</ele>
        <time>2020-03-13T14:57:50Z</time>
      </trkpt>
      <trkpt lat="46.24625" lon="4.12805">
        <ele>462</ele>
        <time>2020-03-13T14:58:24Z</time>
      </trkpt>
      <trkpt lat="46.24625" lon="4.12805">
        <ele>462</ele>
        <time>2020-03-13T14:58:24Z</time>
      </trkpt>
      <trkpt lat="46.24609" lon="4.12861">
        <ele>466</ele>
        <time>2020-03-13T14:59:20Z</time>
      </trkpt>
      <trkpt lat="46.24609" lon="4.12861">
        <ele>466</ele>
        <time>2020-03-13T14:59:20Z</time>
      </trkpt>
      <trkpt lat="46.24593" lon="4.12891">
        <ele>467</ele>
        <time>2020-03-13T14:59:55Z</time>
      </trkpt>
      <trkpt lat="46.24593" lon="4.12891">
        <ele>467</ele>
        <time>2020-03-13T14:59:55Z</time>
      </trkpt>
      <trkpt lat="46.24498" lon="4.13004">
        <ele>467</ele>
        <time>2020-03-13T15:02:39Z</time>
      </trkpt>
      <trkpt lat="46.24498" lon="4.13004">
        <ele>467</ele>
        <time>2020-03-13T15:02:39Z</time>
      </trkpt>
      <trkpt lat="46.24454" lon="4.13064">
        <ele>468</ele>
        <time>2020-03-13T15:03:59Z</time>
      </trkpt>
      <trkpt lat="46.24454" lon="4.13064">
        <ele>468</ele>
        <time>2020-03-13T15:04:00Z</time>
      </trkpt>
      <trkpt lat="46.24387" lon="4.132">
        <ele>476</ele>
        <time>2020-03-13T15:06:34Z</time>
      </trkpt>
      <trkpt lat="46.24387" lon="4.132">
        <ele>476</ele>
        <time>2020-03-13T15:06:34Z</time>
      </trkpt>
      <trkpt lat="46.24361" lon="4.13281">
        <ele>482</ele>
        <time>2020-03-13T15:07:56Z</time>
      </trkpt>
      <trkpt lat="46.24361" lon="4.13281">
        <ele>482</ele>
        <time>2020-03-13T15:07:56Z</time>
      </trkpt>
      <trkpt lat="46.24347" lon="4.13347">
        <ele>487</ele>
        <time>2020-03-13T15:09:00Z</time>
      </trkpt>
      <trkpt lat="46.24347" lon="4.13347">
        <ele>487</ele>
        <time>2020-03-13T15:09:00Z</time>
      </trkpt>
      <trkpt lat="46.2431" lon="4.13416">
        <ele>493</ele>
        <time>2020-03-13T15:10:20Z</time>
      </trkpt>
      <trkpt lat="46.24307" lon="4.13419">
        <ele>493</ele>
        <time>2020-03-13T15:10:25Z</time>
      </trkpt>
      <trkpt lat="46.2431" lon="4.13422">
        <ele>493</ele>
        <time>2020-03-13T15:10:30Z</time>
      </trkpt>
      <trkpt lat="46.24284" lon="4.13483">
        <ele>496</ele>
        <time>2020-03-13T15:11:36Z</time>
      </trkpt>
      <trkpt lat="46.24266" lon="4.13542">
        <ele>497</ele>
        <time>2020-03-13T15:12:36Z</time>
      </trkpt>
      <trkpt lat="46.24258" lon="4.13589">
        <ele>497</ele>
        <time>2020-03-13T15:13:20Z</time>
      </trkpt>
      <trkpt lat="46.24216" lon="4.13594">
        <ele>497</ele>
        <time>2020-03-13T15:14:17Z</time>
      </trkpt>
      <trkpt lat="46.24197" lon="4.13602">
        <ele>497</ele>
        <time>2020-03-13T15:14:43Z</time>
      </trkpt>
      <trkpt lat="46.24182" lon="4.13612">
        <ele>497</ele>
        <time>2020-03-13T15:15:05Z</time>
      </trkpt>
      <trkpt lat="46.24172" lon="4.13623">
        <ele>497</ele>
        <time>2020-03-13T15:15:22Z</time>
      </trkpt>
      <trkpt lat="46.24163" lon="4.13642">
        <ele>498</ele>
        <time>2020-03-13T15:15:43Z</time>
      </trkpt>
      <trkpt lat="46.24156" lon="4.1365">
        <ele>498</ele>
        <time>2020-03-13T15:15:55Z</time>
      </trkpt>
      <trkpt lat="46.24145" lon="4.13655">
        <ele>498</ele>
        <time>2020-03-13T15:16:10Z</time>
      </trkpt>
      <trkpt lat="46.24099" lon="4.13666">
        <ele>497</ele>
        <time>2020-03-13T15:17:13Z</time>
      </trkpt>
      <trkpt lat="46.24083" lon="4.13664">
        <ele>497</ele>
        <time>2020-03-13T15:17:34Z</time>
      </trkpt>
      <trkpt lat="46.24071" lon="4.13655">
        <ele>497</ele>
        <time>2020-03-13T15:17:52Z</time>
      </trkpt>
      <trkpt lat="46.2406" lon="4.13644">
        <ele>497</ele>
        <time>2020-03-13T15:18:10Z</time>
      </trkpt>
      <trkpt lat="46.24036" lon="4.13606">
        <ele>496</ele>
        <time>2020-03-13T15:18:57Z</time>
      </trkpt>
      <trkpt lat="46.24019" lon="4.13586">
        <ele>495</ele>
        <time>2020-03-13T15:19:27Z</time>
      </trkpt>
      <trkpt lat="46.24005" lon="4.13578">
        <ele>495</ele>
        <time>2020-03-13T15:19:47Z</time>
      </trkpt>
      <trkpt lat="46.23985" lon="4.13577">
        <ele>495</ele>
        <time>2020-03-13T15:20:14Z</time>
      </trkpt>
      <trkpt lat="46.23956" lon="4.13582">
        <ele>494</ele>
        <time>2020-03-13T15:20:52Z</time>
      </trkpt>
      <trkpt lat="46.23917" lon="4.13596">
        <ele>494</ele>
        <time>2020-03-13T15:21:46Z</time>
      </trkpt>
      <trkpt lat="46.23904" lon="4.13595">
        <ele>494</ele>
        <time>2020-03-13T15:22:03Z</time>
      </trkpt>
      <trkpt lat="46.23891" lon="4.13694">
        <ele>496</ele>
        <time>2020-03-13T15:23:37Z</time>
      </trkpt>
      <trkpt lat="46.23861" lon="4.13858">
        <ele>497</ele>
        <time>2020-03-13T15:26:13Z</time>
      </trkpt>
      <trkpt lat="46.23859" lon="4.13916">
        <ele>497</ele>
        <time>2020-03-13T15:27:07Z</time>
      </trkpt>
      <trkpt lat="46.2386" lon="4.13958">
        <ele>497</ele>
        <time>2020-03-13T15:27:45Z</time>
      </trkpt>
    </trkseg>
  </trk>
</gpx>